Time;durP1;ratioP1;P1;durP2;ratioP2;P2;SDS_P1;SDS_P2;PMS_P1;PMS_P2;Temp;Humidity;BMP_temperature;BMP_pressure;BME280_temperature;BME280_humidity;BME280_pressure;Samples;Min_cycle;Max_cycle;Signal;HPM_P1;HPM_P2
2023/01/10 00:00:01;;;;;;;3.58;2.03;;;;;;;2.25;100.00;95024.69;4980718;28;20040;-76
2023/01/10 00:02:26;;;;;;;4.03;2.22;;;;;;;2.23;100.00;95021.53;4982339;28;20411;-76
2023/01/10 00:04:52;;;;;;;6.13;2.17;;;;;;;2.20;100.00;95022.00;4980560;28;20522;-76
2023/01/10 00:07:17;;;;;;;4.35;1.98;;;;;;;2.19;100.00;95020.41;4983371;28;20046;-76
2023/01/10 00:09:43;;;;;;;5.15;1.95;;;;;;;2.21;100.00;95033.16;4984233;28;20046;-76
2023/01/10 00:14:52;;;;;;;3.95;2.30;;;;;;;2.18;100.00;95039.59;4984037;28;20042;-76
2023/01/10 00:17:19;;;;;;;7.32;2.33;;;;;;;2.18;100.00;95044.00;4984683;28;20049;-76
2023/01/10 00:19:45;;;;;;;3.53;2.00;;;;;;;2.22;100.00;95045.91;5003295;28;20503;-76
2023/01/10 00:22:10;;;;;;;2.72;1.80;;;;;;;2.21;100.00;95044.34;4975672;28;20039;-76
2023/01/10 00:24:37;;;;;;;3.45;2.05;;;;;;;2.31;100.00;95048.16;4975008;28;20062;-76
2023/01/10 00:27:03;;;;;;;4.75;1.90;;;;;;;2.30;100.00;95056.97;4967482;28;20038;-76
2023/01/10 00:29:34;;;;;;;3.78;1.98;;;;;;;2.32;100.00;95060.91;4964934;28;20042;-77
2023/01/10 00:31:59;;;;;;;3.45;2.00;;;;;;;2.34;100.00;95063.28;4982929;28;20054;-76
2023/01/10 00:34:25;;;;;;;2.53;1.83;;;;;;;2.37;100.00;95068.03;4966981;28;20997;-74
2023/01/10 00:36:51;;;;;;;3.85;1.95;;;;;;;2.31;100.00;95058.56;4981456;28;20097;-75
2023/01/10 00:39:19;;;;;;;2.97;1.90;;;;;;;2.37;100.00;95062.81;4983194;28;20046;-75
2023/01/10 00:44:29;;;;;;;;;;;;;;;2.46;100.00;95071.06;4982077;28;20042;-74
2023/01/10 00:46:55;;;;;;;4.88;1.75;;;;;;;2.39;100.00;95076.38;4981341;28;20327;-75
2023/01/10 00:49:21;;;;;;;5.97;1.88;;;;;;;2.45;100.00;95080.66;4982156;28;20120;-75
2023/01/10 00:51:46;;;;;;;3.90;1.60;;;;;;;2.48;100.00;95082.81;4982014;28;20070;-76
2023/01/10 00:54:13;;;;;;;3.00;1.92;;;;;;;2.52;100.00;95086.53;4982143;28;20046;-75
2023/01/10 00:56:39;;;;;;;4.63;2.05;;;;;;;2.49;100.00;95094.78;4982279;28;20038;-74
2023/01/10 00:59:05;;;;;;;4.10;1.70;;;;;;;2.46;100.00;95103.03;4981682;28;20077;-76
2023/01/10 01:01:31;;;;;;;5.38;1.92;;;;;;;2.52;100.00;95099.50;4982029;28;20141;-75
2023/01/10 01:03:58;;;;;;;3.38;2.00;;;;;;;2.51;100.00;95115.31;4982630;28;20089;-74
2023/01/10 01:06:24;;;;;;;2.15;1.52;;;;;;;2.47;100.00;95115.00;4980955;28;20121;-74
2023/01/10 01:08:50;;;;;;;3.55;1.80;;;;;;;2.48;100.00;95121.75;4982600;28;20173;-75
2023/01/10 01:11:15;;;;;;;3.75;1.90;;;;;;;2.53;100.00;95113.28;4982462;28;20086;-75
2023/01/10 01:13:41;;;;;;;2.92;1.70;;;;;;;2.52;100.00;95117.69;4963966;28;20039;-75
2023/01/10 01:16:07;;;;;;;2.65;1.60;;;;;;;2.51;100.00;95116.09;4983703;28;20046;-74
2023/01/10 01:18:33;;;;;;;5.50;2.00;;;;;;;2.57;100.00;95135.19;4964807;28;20092;-73
2023/01/10 01:21:02;;;;;;;3.50;1.45;;;;;;;2.51;100.00;95136.88;4982130;28;20042;-75
2023/01/10 01:23:29;;;;;;;10.60;1.95;;;;;;;2.63;100.00;95138.69;4981084;28;20034;-75
2023/01/10 01:25:55;;;;;;;3.25;1.92;;;;;;;2.50;100.00;95145.72;4981287;28;20399;-75
2023/01/10 01:28:21;;;;;;;2.70;1.60;;;;;;;2.48;100.00;95147.72;5002889;28;20042;-75
2023/01/10 01:30:47;;;;;;;2.65;1.60;;;;;;;2.44;100.00;95157.00;4988193;28;20039;-75
2023/01/10 01:33:13;;;;;;;3.92;1.73;;;;;;;2.47;100.00;95160.94;4990552;28;20042;-75
2023/01/10 01:35:42;;;;;;;3.15;1.50;;;;;;;2.48;100.00;95173.72;4982593;28;20045;-75
2023/01/10 01:38:08;;;;;;;3.33;1.50;;;;;;;2.56;100.00;95167.41;4981974;28;20389;-74
2023/01/10 01:40:35;;;;;;;4.22;1.70;;;;;;;2.48;100.00;95167.72;4982978;28;20069;-75
2023/01/10 01:43:01;;;;;;;4.68;1.60;;;;;;;2.43;100.00;95174.38;4962525;28;20046;-76
2023/01/10 01:45:36;;;;;;;5.82;1.77;;;;;;;2.43;100.00;95181.41;4980708;28;20046;-76
2023/01/10 01:48:19;;;;;;;5.30;1.67;;;;;;;2.42;100.00;95190.19;4963772;28;20108;-75
2023/01/10 01:51:13;;;;;;;3.55;1.38;;;;;;;2.42;100.00;95195.41;4965271;28;20050;-76
2023/01/10 01:53:49;;;;;;;4.68;1.50;;;;;;;2.48;100.00;95197.09;4966035;28;20571;-76
2023/01/10 01:56:32;;;;;;;4.50;1.50;;;;;;;2.49;100.00;95190.88;4978877;28;20546;-76
2023/01/10 01:59:03;;;;;;;3.97;1.60;;;;;;;2.60;100.00;95208.28;4981458;28;20101;-74
2023/01/10 02:01:30;;;;;;;4.13;1.35;;;;;;;2.57;100.00;95203.53;4981301;28;20051;-76
2023/01/10 02:04:15;;;;;;;1.60;1.15;;;;;;;2.67;100.00;95212.56;4981774;28;20045;-75
2023/01/10 02:06:43;;;;;;;2.58;1.40;;;;;;;2.56;100.00;95217.53;4979233;28;20420;-74
2023/01/10 02:09:20;;;;;;;1.92;1.25;;;;;;;2.51;100.00;95217.41;4963565;28;20038;-76
2023/01/10 02:11:46;;;;;;;2.08;1.25;;;;;;;2.58;100.00;95220.69;4981884;28;20072;-76
2023/01/10 02:14:13;;;;;;;1.92;1.35;;;;;;;2.52;100.00;95221.59;4981693;28;20043;-76
2023/01/10 02:16:38;;;;;;;2.97;1.63;;;;;;;2.48;100.00;95225.66;4978973;28;20092;-75
2023/01/10 02:19:16;;;;;;;3.42;1.70;;;;;;;2.47;100.00;95224.09;4980153;28;20050;-74
2023/01/10 02:21:57;;;;;;;2.90;1.42;;;;;;;2.48;100.00;95219.69;4979898;28;20070;-76
2023/01/10 02:24:51;;;;;;;2.72;1.75;;;;;;;2.45;100.00;95223.50;4981046;28;20395;-75
2023/01/10 02:27:50;;;;;;;2.15;1.58;;;;;;;2.49;100.00;95222.06;4963866;28;20447;-76
2023/01/10 02:30:42;;;;;;;6.07;1.27;;;;;;;2.55;100.00;95231.53;4979778;28;20042;-75
2023/01/10 02:33:46;;;;;;;3.88;1.30;;;;;;;2.54;100.00;95235.16;4963852;28;20034;-76
2023/01/10 02:36:35;;;;;;;4.20;1.48;;;;;;;2.54;100.00;95235.16;4939670;28;20412;-76
2023/01/10 02:39:14;;;;;;;2.78;1.40;;;;;;;2.55;100.00;95241.94;4982579;28;20069;-75
2023/01/10 02:41:56;;;;;;;6.50;1.52;;;;;;;2.47;100.00;95239.69;4968107;28;20043;-74
2023/01/10 02:44:35;;;;;;;7.80;1.50;;;;;;;2.50;100.00;95239.22;4967277;28;20116;-76
2023/01/10 02:47:06;;;;;;;2.13;1.45;;;;;;;2.50;100.00;95254.81;4984737;28;20046;-76
2023/01/10 02:49:44;;;;;;;4.80;1.25;;;;;;;2.49;100.00;95242.84;4983750;28;20054;-75
2023/01/10 02:52:14;;;;;;;2.03;1.40;;;;;;;2.47;100.00;95252.66;4984644;28;20039;-75
2023/01/10 02:54:40;;;;;;;2.60;1.20;;;;;;;2.44;100.00;95245.28;4983113;28;20039;-76
2023/01/10 02:57:28;;;;;;;1.60;1.15;;;;;;;2.40;100.00;95249.38;4967374;28;20038;-76
2023/01/10 03:00:01;;;;;;;3.78;1.20;;;;;;;2.42;100.00;95262.94;4983460;28;20504;-75
2023/01/10 03:02:27;;;;;;;1.80;1.30;;;;;;;2.42;100.00;95257.72;4983662;28;20493;-76
2023/01/10 03:05:26;;;;;;;2.03;1.25;;;;;;;2.39;100.00;95268.56;4983919;28;20049;-75
2023/01/10 03:07:54;;;;;;;1.58;1.00;;;;;;;2.47;100.00;95263.06;4985838;28;20504;-75
2023/01/10 03:10:19;;;;;;;1.30;1.20;;;;;;;2.38;100.00;95277.38;4966209;28;20069;-75
2023/01/10 03:13:00;;;;;;;1.75;1.23;;;;;;;2.36;100.00;95274.22;4982163;28;20508;-74
2023/01/10 03:15:31;;;;;;;2.45;1.27;;;;;;;2.35;100.00;95277.81;4967625;28;20088;-76
2023/01/10 03:18:00;;;;;;;2.33;1.50;;;;;;;2.41;100.00;95282.13;4985005;28;20412;-76
2023/01/10 03:20:27;;;;;;;2.90;1.30;;;;;;;2.34;100.00;95284.81;4984074;28;20100;-76
2023/01/10 03:22:55;;;;;;;2.67;1.27;;;;;;;2.35;100.00;95293.41;4983676;28;20646;-76
2023/01/10 03:25:25;;;;;;;1.30;1.20;;;;;;;2.37;100.00;95301.75;4984044;28;20451;-76
2023/01/10 03:28:01;;;;;;;1.38;0.90;;;;;;;2.35;100.00;95298.59;4983697;28;20042;-76
2023/01/10 03:30:34;;;;;;;2.50;1.50;;;;;;;2.40;100.00;95311.72;4966447;28;20062;-75
2023/01/10 03:33:02;;;;;;;1.70;1.23;;;;;;;2.46;100.00;95321.22;4983796;28;20241;-73
2023/01/10 03:35:35;;;;;;;3.42;1.33;;;;;;;2.35;100.00;95320.16;4982555;28;20407;-76
2023/01/10 03:38:08;;;;;;;1.73;1.50;;;;;;;2.37;100.00;95318.13;4958794;28;20042;-76
2023/01/10 03:40:52;;;;;;;2.28;1.23;;;;;;;2.35;100.00;95327.16;4995666;28;20651;-76
2023/01/10 03:46:16;;;;;;;2.92;1.30;;;;;;;2.44;100.00;95349.19;4997724;28;20595;-75
2023/01/10 03:48:45;;;;;;;1.48;1.13;;;;;;;2.51;100.00;95349.09;4982699;28;20046;-76
2023/01/10 03:51:12;;;;;;;2.08;1.40;;;;;;;2.47;100.00;95348.78;4981009;28;20045;-76
2023/01/10 03:53:39;;;;;;;2.03;1.52;;;;;;;2.54;100.00;95354.66;5001765;28;20454;-76
2023/01/10 03:56:05;;;;;;;3.85;1.48;;;;;;;2.58;100.00;95360.97;4998512;28;20495;-76
2023/01/10 03:58:32;;;;;;;2.38;1.42;;;;;;;2.49;100.00;95366.72;4983884;28;20409;-75
2023/01/10 04:00:57;;;;;;;3.38;1.38;;;;;;;2.54;100.00;95367.66;4952722;28;20515;-75
2023/01/10 04:03:23;;;;;;;3.35;1.45;;;;;;;2.50;100.00;95374.31;4999363;28;20047;-76
2023/01/10 04:05:48;;;;;;;1.50;1.30;;;;;;;2.54;100.00;95375.44;4979146;28;20049;-76
2023/01/10 04:08:14;;;;;;;2.60;1.30;;;;;;;2.55;100.00;95382.22;4969806;28;20129;-76
2023/01/10 04:10:39;;;;;;;2.33;1.40;;;;;;;2.55;100.00;95387.41;4967465;28;20041;-75
2023/01/10 04:13:05;;;;;;;1.83;1.35;;;;;;;2.60;100.00;95390.16;4982981;28;20065;-76
2023/01/10 04:15:31;;;;;;;2.65;1.45;;;;;;;2.57;100.00;95388.00;4984691;28;20046;-74
2023/01/10 04:17:57;;;;;;;1.88;1.48;;;;;;;2.55;100.00;95392.59;4981170;28;20133;-76
2023/01/10 04:20:26;;;;;;;1.48;1.25;;;;;;;2.58;100.00;95405.16;4982548;28;20038;-74
2023/01/10 04:22:53;;;;;;;1.50;1.30;;;;;;;2.56;100.00;95409.78;4982266;28;20555;-76
2023/01/10 04:25:20;;;;;;;1.92;1.33;;;;;;;2.63;100.00;95420.09;4982836;28;20393;-75
2023/01/10 04:27:50;;;;;;;3.13;1.50;;;;;;;2.55;100.00;95428.97;4967494;28;20050;-75
2023/01/10 04:30:16;;;;;;;2.13;1.48;;;;;;;2.71;100.00;95432.75;4983656;28;20050;-75
2023/01/10 04:32:42;;;;;;;2.00;1.50;;;;;;;2.66;100.00;95439.63;4984306;28;20054;-75
2023/01/10 04:35:08;;;;;;;4.38;1.60;;;;;;;2.59;100.00;95435.31;4984131;28;20053;-76
2023/01/10 04:37:33;;;;;;;2.22;1.52;;;;;;;2.52;100.00;95449.41;4983935;28;20042;-76
2023/01/10 04:39:59;;;;;;;2.53;1.48;;;;;;;2.55;100.00;95449.75;4981347;28;20548;-76
2023/01/10 04:42:25;;;;;;;2.55;1.63;;;;;;;2.59;100.00;95455.31;4982703;28;20058;-75
2023/01/10 04:44:50;;;;;;;3.97;1.60;;;;;;;2.58;100.00;95462.31;4982806;28;20485;-74
2023/01/10 04:47:16;;;;;;;3.53;1.60;;;;;;;2.49;100.00;95466.22;4982035;28;20034;-76
2023/01/10 04:49:41;;;;;;;2.40;1.70;;;;;;;2.35;100.00;95462.19;4982987;28;20065;-76
2023/01/10 04:52:07;;;;;;;1.92;1.63;;;;;;;2.31;100.00;95468.84;4983478;28;20128;-76
2023/01/10 04:54:32;;;;;;;2.88;1.90;;;;;;;2.27;100.00;95472.88;4982581;28;20074;-75
2023/01/10 04:56:58;;;;;;;2.85;1.75;;;;;;;2.22;100.00;95471.72;4982841;28;20089;-75
2023/01/10 04:59:23;;;;;;;2.47;1.70;;;;;;;2.20;100.00;95473.75;4982826;28;20038;-75
2023/01/10 05:01:49;;;;;;;3.58;2.13;;;;;;;2.22;100.00;95470.94;4984722;28;20054;-75
2023/01/10 05:04:15;;;;;;;4.20;1.92;;;;;;;2.31;100.00;95484.41;4967147;28;20042;-75
2023/01/10 05:06:40;;;;;;;2.70;1.88;;;;;;;2.29;100.00;95481.25;4981598;28;20046;-76
2023/01/10 05:09:08;;;;;;;4.65;2.13;;;;;;;2.23;100.00;95494.09;4983201;28;20042;-76
2023/01/10 05:11:34;;;;;;;3.70;2.15;;;;;;;2.19;100.00;95498.13;4962952;28;20046;-76
2023/01/10 05:13:59;;;;;;;3.72;2.20;;;;;;;2.17;100.00;95500.16;4965839;28;20042;-75
2023/01/10 05:16:25;;;;;;;2.15;1.80;;;;;;;2.21;100.00;95509.09;4983174;28;20046;-74
2023/01/10 05:18:51;;;;;;;4.95;2.15;;;;;;;2.22;100.00;95515.88;4982547;28;20045;-76
2023/01/10 05:21:17;;;;;;;3.05;1.88;;;;;;;2.20;100.00;95510.09;4982945;28;20048;-76
2023/01/10 05:23:42;;;;;;;3.85;1.85;;;;;;;2.21;100.00;95519.50;4983300;28;20070;-76
2023/01/10 05:26:10;;;;;;;3.70;1.83;;;;;;;2.19;100.00;95524.09;4967661;28;20057;-76
2023/01/10 05:28:36;;;;;;;3.60;2.22;;;;;;;2.19;100.00;95529.28;4983310;28;20038;-76
2023/01/10 05:31:05;;;;;;;2.88;1.60;;;;;;;2.27;100.00;95535.19;4965132;28;20041;-76
2023/01/10 05:33:31;;;;;;;2.50;1.70;;;;;;;2.27;100.00;95540.41;4981105;28;20472;-76
2023/01/10 05:35:56;;;;;;;3.03;2.00;;;;;;;2.25;100.00;95544.00;4982159;28;20041;-76
2023/01/10 05:38:22;;;;;;;3.03;2.00;;;;;;;2.23;100.00;95545.25;4982520;28;20046;-75
2023/01/10 05:40:54;;;;;;;4.07;1.92;;;;;;;2.31;100.00;95546.75;4982983;28;20057;-75
2023/01/10 05:43:19;;;;;;;3.15;1.70;;;;;;;2.32;100.00;95548.34;4964693;28;20187;-75
2023/01/10 05:45:45;;;;;;;2.13;1.63;;;;;;;2.23;100.00;95561.59;4983150;28;21289;-75
2023/01/10 05:48:10;;;;;;;3.05;1.85;;;;;;;2.27;100.00;95555.97;4965552;28;20069;-76
2023/01/10 05:50:36;;;;;;;2.80;1.90;;;;;;;2.32;100.00;95569.13;4980694;28;20563;-76
2023/01/10 05:53:04;;;;;;;3.08;1.85;;;;;;;2.29;100.00;95575.53;4982783;28;20065;-76
2023/01/10 05:55:31;;;;;;;2.15;1.65;;;;;;;2.27;100.00;95566.38;4982460;28;20139;-75
2023/01/10 05:57:56;;;;;;;1.77;1.40;;;;;;;2.27;100.00;95581.94;4966606;28;20042;-74
2023/01/10 06:00:22;;;;;;;1.63;1.40;;;;;;;2.33;100.00;95571.50;4980525;28;20046;-75
2023/01/10 06:02:48;;;;;;;4.55;1.65;;;;;;;2.30;100.00;95589.31;4983212;28;20042;-76
2023/01/10 06:05:14;;;;;;;2.80;1.70;;;;;;;2.32;100.00;95592.50;4966398;28;20067;-75
2023/01/10 06:07:39;;;;;;;2.50;1.48;;;;;;;2.28;100.00;95593.94;4980433;28;20046;-76
2023/01/10 06:10:05;;;;;;;2.50;1.50;;;;;;;2.27;100.00;95607.91;4981488;28;20505;-76
2023/01/10 06:12:31;;;;;;;2.50;1.80;;;;;;;2.29;100.00;95611.09;4978530;28;20489;-76
2023/01/10 06:14:57;;;;;;;2.30;1.60;;;;;;;2.29;100.00;95626.69;4982934;28;20046;-76
2023/01/10 06:17:22;;;;;;;2.40;1.67;;;;;;;2.34;100.00;95619.03;4982250;28;20122;-76
2023/01/10 06:19:48;;;;;;;1.92;1.50;;;;;;;2.31;100.00;95627.25;4983023;28;20443;-76
2023/01/10 06:22:13;;;;;;;1.45;1.23;;;;;;;2.34;100.00;95632.03;4982166;28;20058;-76
2023/01/10 06:24:39;;;;;;;4.50;1.60;;;;;;;2.31;100.00;95635.03;4982437;28;20401;-76
2023/01/10 06:27:04;;;;;;;3.15;1.67;;;;;;;2.28;100.00;95635.47;4965190;28;22053;-76
2023/01/10 06:29:30;;;;;;;2.38;1.50;;;;;;;2.35;100.00;95651.78;4967556;28;20050;-75
2023/01/10 06:31:56;;;;;;;2.30;1.50;;;;;;;2.32;100.00;95647.03;4981410;28;20047;-74
2023/01/10 06:34:21;;;;;;;2.20;1.60;;;;;;;2.39;100.00;95652.97;4980103;28;20433;-76
2023/01/10 06:36:47;;;;;;;2.45;1.75;;;;;;;2.40;100.00;95654.56;4981432;28;20101;-76
2023/01/10 06:39:12;;;;;;;2.38;1.55;;;;;;;2.37;100.00;95667.94;4982464;28;20077;-76
2023/01/10 06:41:38;;;;;;;2.65;1.73;;;;;;;2.40;100.00;95675.34;4982082;28;20191;-76
2023/01/10 06:44:04;;;;;;;2.10;1.60;;;;;;;2.36;100.00;95669.75;4980457;28;20938;-76
2023/01/10 06:46:29;;;;;;;1.98;1.40;;;;;;;2.39;100.00;95684.13;4983428;28;20218;-75
2023/01/10 06:48:55;;;;;;;2.08;1.60;;;;;;;2.39;100.00;95686.72;4982807;28;20093;-76
2023/01/10 06:51:20;;;;;;;1.95;1.50;;;;;;;2.41;100.00;95692.50;4982166;28;20038;-76
2023/01/10 06:53:46;;;;;;;2.67;1.70;;;;;;;2.46;100.00;95697.84;4980471;28;20140;-76
2023/01/10 06:56:11;;;;;;;2.25;1.48;;;;;;;2.41;100.00;95703.69;4981865;28;20041;-76
2023/01/10 06:58:38;;;;;;;1.67;1.30;;;;;;;2.47;100.00;95712.44;4982308;28;20122;-77
2023/01/10 07:01:12;;;;;;;1.85;1.42;;;;;;;2.50;100.00;95721.59;4981105;28;20046;-74
2023/01/10 07:03:39;;;;;;;1.80;1.45;;;;;;;2.49;100.00;95731.19;4981228;28;20408;-76
2023/01/10 07:06:08;;;;;;;2.10;1.48;;;;;;;2.44;100.00;95738.81;4966209;28;20128;-76
2023/01/10 07:08:36;;;;;;;1.73;1.40;;;;;;;2.51;100.00;95736.97;4964667;28;20148;-75
2023/01/10 07:11:01;;;;;;;2.63;1.58;;;;;;;2.44;100.00;95754.41;4965621;28;20038;-76
2023/01/10 07:13:27;;;;;;;2.65;1.42;;;;;;;2.47;100.00;95748.81;4980409;28;20053;-76
2023/01/10 07:16:03;;;;;;;2.05;1.50;;;;;;;2.42;100.00;95762.41;4963486;28;20117;-76
2023/01/10 07:18:28;;;;;;;4.18;1.70;;;;;;;2.41;100.00;95760.84;4990609;28;20054;-76
2023/01/10 07:20:54;;;;;;;2.47;1.60;;;;;;;2.49;100.00;95767.56;4983532;28;20035;-76
2023/01/10 07:23:20;;;;;;;3.00;1.70;;;;;;;2.43;100.00;95786.59;4988207;28;20412;-76
2023/01/10 07:25:45;;;;;;;2.65;1.60;;;;;;;2.49;100.00;95793.53;4993742;28;20054;-76
2023/01/10 07:28:11;;;;;;;3.05;1.70;;;;;;;2.43;100.00;95794.41;4985291;28;20038;-75
2023/01/10 07:30:36;;;;;;;3.45;1.65;;;;;;;2.45;100.00;95801.97;4988365;28;20035;-76
2023/01/10 07:33:02;;;;;;;2.70;1.88;;;;;;;2.45;100.00;95797.56;4981695;28;20046;-76
2023/01/10 07:35:28;;;;;;;4.28;2.08;;;;;;;2.46;100.00;95809.56;4983494;28;20042;-73
2023/01/10 07:37:58;;;;;;;4.18;2.00;;;;;;;2.46;100.00;95822.53;4983918;28;20050;-76
2023/01/10 07:40:23;;;;;;;2.60;1.80;;;;;;;2.49;100.00;95835.09;4983064;28;20045;-75
2023/01/10 07:42:54;;;;;;;3.05;2.00;;;;;;;2.50;100.00;95836.72;4982424;28;20050;-76
2023/01/10 07:45:19;;;;;;;2.90;2.00;;;;;;;2.49;100.00;95845.50;4983644;28;20035;-74
2023/01/10 07:47:45;;;;;;;4.50;2.13;;;;;;;2.44;100.00;95853.13;4967009;28;20570;-74
2023/01/10 07:50:11;;;;;;;4.25;2.47;;;;;;;2.45;100.00;95862.50;4980148;28;20050;-75
2023/01/10 07:52:37;;;;;;;4.70;2.20;;;;;;;2.43;100.00;95867.13;4965543;28;20472;-76
2023/01/10 07:55:04;;;;;;;3.05;2.05;;;;;;;2.43;100.00;95867.13;4964979;28;20043;-75
2023/01/10 07:57:29;;;;;;;7.85;2.55;;;;;;;2.45;100.00;95870.31;4973647;28;20039;-76
2023/01/10 07:59:55;;;;;;;6.03;2.13;;;;;;;2.42;100.00;95855.91;4965285;28;20065;-76
2023/01/10 08:02:20;;;;;;;5.90;2.70;;;;;;;2.48;100.00;95869.88;4986185;28;20066;-74
2023/01/10 08:04:46;;;;;;;4.07;2.40;;;;;;;2.50;100.00;95873.09;4989887;28;20069;-75
2023/01/10 08:07:12;;;;;;;4.15;2.58;;;;;;;2.52;100.00;95883.25;4992567;28;20043;-76
2023/01/10 08:09:37;;;;;;;8.13;2.70;;;;;;;2.45;100.00;95885.88;4988819;28;20106;-76
2023/01/10 08:12:03;;;;;;;4.47;2.58;;;;;;;2.57;100.00;95889.44;4966030;28;20038;-76
2023/01/10 08:14:28;;;;;;;4.28;2.50;;;;;;;2.49;100.00;95897.47;4966900;28;20038;-76
2023/01/10 08:16:54;;;;;;;4.80;2.55;;;;;;;2.53;100.00;95903.84;4982790;28;20038;-76
2023/01/10 08:19:19;;;;;;;5.95;2.53;;;;;;;2.56;100.00;95913.81;4979711;28;20046;-75
2023/01/10 08:21:45;;;;;;;3.85;2.40;;;;;;;2.58;100.00;95911.78;4967534;28;20044;-75
2023/01/10 08:24:10;;;;;;;6.28;2.35;;;;;;;2.50;100.00;95930.25;4983642;28;20042;-76
2023/01/10 08:26:36;;;;;;;8.48;2.85;;;;;;;2.46;100.00;95929.06;4982759;28;20058;-75
2023/01/10 08:29:01;;;;;;;4.75;2.92;;;;;;;2.41;100.00;95931.47;4966599;28;20046;-74
2023/01/10 08:31:27;;;;;;;4.80;2.63;;;;;;;2.44;100.00;95941.44;4946568;28;1078073;-74
2023/01/10 08:33:53;;;;;;;4.68;2.60;;;;;;;2.48;100.00;95942.63;4966087;28;20100;-74
2023/01/10 08:36:21;;;;;;;5.68;2.70;;;;;;;2.44;100.00;95946.63;4983156;28;20046;-74
2023/01/10 08:38:47;;;;;;;4.93;3.03;;;;;;;2.40;100.00;95972.25;4983745;28;20072;-73
2023/01/10 08:41:13;;;;;;;7.22;2.58;;;;;;;2.39;100.00;95956.88;4983189;28;20050;-74
2023/01/10 08:43:39;;;;;;;4.25;2.35;;;;;;;2.36;100.00;95954.69;4985305;28;20412;-73
2023/01/10 08:46:05;;;;;;;8.73;2.53;;;;;;;2.40;100.00;95958.47;4983485;28;20042;-72
2023/01/10 08:48:30;;;;;;;8.15;2.53;;;;;;;2.45;100.00;95958.63;4982828;28;20485;-74
2023/01/10 08:50:56;;;;;;;7.35;2.42;;;;;;;2.39;100.00;95964.66;4982353;28;20039;-74
2023/01/10 08:53:22;;;;;;;4.22;1.98;;;;;;;2.40;100.00;95971.44;4981476;28;20050;-73
2023/01/10 08:55:48;;;;;;;4.43;2.10;;;;;;;2.41;100.00;95978.22;4987982;28;20043;-72
2023/01/10 08:58:14;;;;;;;4.45;2.45;;;;;;;2.40;100.00;95981.84;4967604;28;20042;-74
2023/01/10 09:00:40;;;;;;;6.72;2.20;;;;;;;2.46;100.00;95981.00;4979649;28;20042;-73
2023/01/10 09:03:06;;;;;;;6.70;2.40;;;;;;;2.41;100.00;95983.41;4982720;28;20508;-74
2023/01/10 09:05:32;;;;;;;5.18;1.88;;;;;;;2.46;100.00;95986.22;4984306;28;20057;-73
2023/01/10 09:07:59;;;;;;;4.05;1.60;;;;;;;2.41;100.00;95991.22;4984180;28;20046;-74
2023/01/10 09:10:26;;;;;;;5.25;1.90;;;;;;;2.33;100.00;95997.44;4986082;28;20038;-74
2023/01/10 09:12:54;;;;;;;5.82;1.77;;;;;;;2.23;100.00;96003.06;4980128;28;20103;-73
2023/01/10 09:15:25;;;;;;;4.70;2.05;;;;;;;2.04;100.00;96006.50;4983599;28;20100;-73
2023/01/10 09:17:55;;;;;;;6.80;2.00;;;;;;;2.06;100.00;96015.69;4982677;28;20046;-74
2023/01/10 09:20:23;;;;;;;7.10;2.03;;;;;;;1.93;100.00;96027.91;4980237;28;20042;-74
2023/01/10 09:22:49;;;;;;;5.55;1.90;;;;;;;1.82;100.00;96022.28;4968034;28;20468;-74
2023/01/10 09:25:15;;;;;;;5.47;1.90;;;;;;;1.78;100.00;96025.50;4966894;28;20046;-74
2023/01/10 09:27:40;;;;;;;7.53;2.42;;;;;;;1.73;100.00;96023.50;4984409;28;20129;-74
2023/01/10 09:30:07;;;;;;;7.28;2.42;;;;;;;1.75;100.00;96020.72;4991481;28;20120;-73
2023/01/10 09:32:32;;;;;;;6.35;2.50;;;;;;;1.81;100.00;96020.72;4983520;28;20046;-73
2023/01/10 09:34:58;;;;;;;4.88;2.40;;;;;;;1.81;100.00;96025.91;4997337;28;20093;-74
2023/01/10 09:37:23;;;;;;;6.10;2.35;;;;;;;1.84;100.00;96033.28;4991074;28;20593;-74
2023/01/10 09:39:51;;;;;;;5.22;2.75;;;;;;;1.85;100.00;96040.09;4974666;28;20053;-74
2023/01/10 09:42:46;;;;;;;5.00;2.42;;;;;;;2.07;100.00;96039.84;4960175;28;20050;-74
2023/01/10 09:45:20;;;;;;;7.57;3.10;;;;;;;2.06;100.00;96048.63;4979218;28;20500;-74
2023/01/10 09:48:07;;;;;;;5.72;2.85;;;;;;;2.19;100.00;96048.59;4980877;28;20065;-74
2023/01/10 09:51:10;;;;;;;9.23;2.78;;;;;;;2.50;100.00;96047.16;4966974;28;20570;-73
2023/01/10 09:53:42;;;;;;;11.63;2.90;;;;;;;2.67;100.00;96049.28;4984848;28;20125;-75
2023/01/10 09:56:08;;;;;;;6.43;2.70;;;;;;;2.75;100.00;96046.47;4994288;28;20041;-74
2023/01/10 09:58:37;;;;;;;8.05;3.05;;;;;;;3.21;100.00;96050.63;4993456;28;20521;-76
2023/01/10 10:01:10;;;;;;;6.53;2.60;;;;;;;3.40;100.00;96055.91;4975903;28;20038;-76
2023/01/10 10:03:52;;;;;;;4.68;2.28;;;;;;;4.58;100.00;96054.28;4981595;28;20258;-75
2023/01/10 10:06:18;;;;;;;6.72;2.53;;;;;;;4.94;100.00;96062.31;4983322;28;20049;-75
2023/01/10 10:08:45;;;;;;;7.38;2.30;;;;;;;5.52;100.00;96040.06;4992330;28;20034;-75
2023/01/10 10:11:26;;;;;;;5.85;2.33;;;;;;;6.50;100.00;96047.53;4983100;28;20576;-73
2023/01/10 10:14:10;;;;;;;5.97;2.67;;;;;;;7.16;100.00;96055.88;4983896;28;20039;-73
2023/01/10 10:17:00;;;;;;;9.23;2.27;;;;;;;7.46;100.00;96042.53;4981607;28;20039;-75
2023/01/10 10:19:54;;;;;;;8.05;2.40;;;;;;;6.62;100.00;96029.97;4985243;28;20055;-74
2023/01/10 10:22:28;;;;;;;8.35;2.33;;;;;;;6.07;100.00;96050.25;5011244;28;20689;-73
2023/01/10 10:25:06;;;;;;;7.20;1.92;;;;;;;5.00;100.00;96051.81;4974384;28;20394;-75
2023/01/10 10:28:02;;;;;;;6.30;2.38;;;;;;;5.06;100.00;96028.44;4956116;28;20042;-74
2023/01/10 10:31:06;;;;;;;7.22;2.50;;;;;;;5.82;100.00;96026.94;4978275;28;20093;-74
2023/01/10 10:34:09;;;;;;;10.23;2.40;;;;;;;5.97;100.00;96029.13;4881621;29;20115;-76
2023/01/10 10:36:40;;;;;;;8.45;2.67;;;;;;;6.83;100.00;96025.94;4902162;29;20052;-75
2023/01/10 10:39:12;;;;;;;8.35;2.25;;;;;;;8.15;100.00;96023.16;4964933;28;20054;-75
2023/01/10 10:41:42;;;;;;;10.27;2.28;;;;;;;8.43;98.35;96021.44;4983198;28;20101;-75
2023/01/10 10:44:45;;;;;;;6.82;2.00;;;;;;;6.68;100.00;96029.06;4983235;28;20045;-75
2023/01/10 10:47:17;;;;;;;7.18;2.20;;;;;;;5.28;100.00;96037.38;4982758;28;20042;-74
2023/01/10 10:49:52;;;;;;;9.30;2.50;;;;;;;5.27;100.00;96035.81;4982781;28;20039;-76
2023/01/10 10:52:30;;;;;;;7.55;2.05;;;;;;;4.92;100.00;96033.06;4982441;28;20047;-75
2023/01/10 10:54:57;;;;;;;8.38;2.20;;;;;;;4.83;100.00;96035.97;4976170;28;20463;-75
2023/01/10 10:57:31;;;;;;;7.78;1.92;;;;;;;5.09;100.00;96038.47;4980855;28;20042;-75
2023/01/10 10:59:58;;;;;;;;;;;;;;;6.54;100.00;96032.97;4986735;28;20038;-76
2023/01/10 11:02:37;;;;;;;3.90;1.60;;;;;;;6.25;100.00;96030.28;4985842;28;19930;-76
2023/01/10 11:05:07;;;;;;;6.63;1.73;;;;;;;5.65;100.00;96032.03;4967527;28;20065;-74
2023/01/10 11:07:35;;;;;;;13.23;1.98;;;;;;;5.73;100.00;96034.31;4966673;28;20074;-75
2023/01/10 11:12:49;;;;;;;6.40;2.03;;;;;;;5.02;100.00;96039.34;4989143;28;20692;-74
2023/01/10 11:15:43;;;;;;;5.90;1.95;;;;;;;4.83;100.00;96045.59;4985787;28;20447;-73
2023/01/10 11:18:15;;;;;;;6.03;1.60;;;;;;;4.62;100.00;96075.53;4982953;28;20081;-71
2023/01/10 11:20:57;;;;;;;10.73;1.90;;;;;;;4.59;100.00;96068.94;4984765;28;20038;-73
2023/01/10 11:23:44;;;;;;;10.68;1.90;;;;;;;4.38;100.00;96061.53;4987656;28;20051;-75
2023/01/10 11:26:25;;;;;;;6.28;1.85;;;;;;;4.14;100.00;96053.56;4970395;28;20051;-75
2023/01/10 11:29:01;;;;;;;5.43;1.63;;;;;;;4.24;100.00;96059.06;4971897;28;20165;-75
2023/01/10 11:31:28;;;;;;;4.40;1.65;;;;;;;4.00;100.00;96073.72;4985750;28;20042;-73
2023/01/10 11:33:55;;;;;;;5.78;1.65;;;;;;;4.21;100.00;96069.09;4968172;28;20515;-75
2023/01/10 11:36:21;;;;;;;4.20;1.40;;;;;;;4.07;100.00;96068.44;4985207;28;20034;-74
2023/01/10 11:39:01;;;;;;;9.68;1.77;;;;;;;3.96;100.00;96065.50;4982488;28;20053;-74
2023/01/10 11:41:33;;;;;;;10.50;1.80;;;;;;;3.92;100.00;96061.75;4998785;28;20057;-73
2023/01/10 11:44:25;;;;;;;9.70;2.10;;;;;;;3.96;100.00;96065.50;4995061;28;20508;-74
2023/01/10 11:46:55;;;;;;;8.60;2.05;;;;;;;3.98;100.00;96066.09;4983910;28;20116;-76
2023/01/10 11:49:29;;;;;;;4.78;1.75;;;;;;;3.84;100.00;96080.25;4981847;28;20127;-75
2023/01/10 11:51:59;;;;;;;7.50;1.75;;;;;;;3.69;100.00;96069.34;4987405;28;20062;-74
2023/01/10 11:54:27;;;;;;;8.32;1.80;;;;;;;3.67;100.00;96068.75;4982283;28;20114;-74
2023/01/10 11:56:59;;;;;;;7.18;1.80;;;;;;;3.70;100.00;96068.34;4986691;28;20468;-75